Jackie Gonsoulin — WDE3014 — position and weather

sailwx.info

Track history (hours):
 
Tides and Currents Weather Stations Pressure Air Temp Water Temp Dewpoint Dewpoint Depression Visibility Wind Speed Wind Dir Waves Ship Positions

Jackie Gonsoulin

Owner: LeBeouf Bros. Towing, LLC, Houma, LA. More information available from US FCC via Universal Licensing System and Coast Guard Vessel Documentation Center.

Last reported at 2018-Jun-25 02:17 UTC. Time now 2018-Jun-25 13:51 UTC.
Position N 29°51' W 091°55'.

Length 23 m.

Type: Tug. MMSI: 367332930.

Date/timePositionNaut miles runAvg speedWind from/ knotsBaromVisibWave heightAir tempDewpointWater temp
2018-Jun-25 02:17N 29°51' W 091°55'2 7.1
2018-Jun-25 02:00N 29°50' W 091°58'4 7.3
2018-Jun-25 01:30N 29°49' W 092°02'3 6.8
2018-Jun-25 01:00N 29°48' W 092°05'3 6.8
2018-Jun-25 00:30N 29°47' W 092°09'3 5.8
2018-Jun-25 00:00N 29°47' W 092°12'1 1.8
2018-Jun-24 23:30N 29°47' W 092°13'0 0.0
2018-Jun-24 23:00N 29°47' W 092°13'0 0.0
2018-Jun-24 22:30N 29°48' W 092°13'0 0.0
2018-Jun-24 22:00N 29°48' W 092°13'0 0.0
2018-Jun-24 21:30N 29°48' W 092°13'0 0.2
2018-Jun-24 21:00N 29°48' W 092°13'1 1.6
2018-Jun-24 20:30N 29°48' W 092°14'1 2.3
2018-Jun-24 20:00N 29°48' W 092°15'0 0.0
2018-Jun-24 19:30N 29°48' W 092°15'0 0.0
2018-Jun-24 18:59N 29°48' W 092°15'0 0.0
2018-Jun-24 18:30N 29°48' W 092°15'0 0.8
2018-Jun-24 18:00N 29°48' W 092°16'0 0.9
2018-Jun-24 17:30N 29°49' W 092°16'1 1.3
2018-Jun-24 17:00N 29°49' W 092°17'0 0.0
2018-Jun-24 16:30N 29°49' W 092°17'3 5.1
2018-Jun-24 16:00N 29°50' W 092°19'37 6.2
2018-Jun-24 10:03N 29°56' W 093°02'0 6.2
2018-Jun-24 09:59N 29°56' W 093°02'2 4.3
2018-Jun-24 09:30N 29°56' W 093°04'3 5.9
2018-Jun-24 09:00N 29°56' W 093°08'2 4.1
2018-Jun-24 08:30N 29°57' W 093°10'3 5.5
2018-Jun-24 08:00N 29°59' W 093°12'2 4.6
2018-Jun-24 07:30N 30°01' W 093°14'2 3.3
2018-Jun-24 07:00N 30°02' W 093°15'2 3.7
2018-Jun-24 06:30N 30°04' W 093°16'2 3.2
2018-Jun-24 06:00N 30°05' W 093°17'1 2.7
2018-Jun-24 05:30N 30°06' W 093°18'1 1.4
2018-Jun-24 05:00N 30°06' W 093°19'0 0.2
2018-Jun-24 04:30N 30°06' W 093°19'0 0.0
2018-Jun-24 04:00N 30°06' W 093°19'0 0.2
2018-Jun-24 03:30N 30°06' W 093°19'0 0.0
2018-Jun-24 03:00N 30°06' W 093°19'0 0.0
2018-Jun-24 02:30N 30°06' W 093°19'0 0.0
2018-Jun-24 02:00N 30°06' W 093°19'0 0.1
2018-Jun-24 01:30N 30°06' W 093°19'0 0.0
2018-Jun-24 01:00N 30°06' W 093°19'0 0.1
2018-Jun-24 00:30N 30°06' W 093°19'0 0.0
2018-Jun-24 00:00N 30°06' W 093°19'0 0.0
2018-Jun-23 23:30N 30°06' W 093°19'0 0.0
2018-Jun-23 23:00N 30°06' W 093°19'0 0.0
2018-Jun-23 22:30N 30°06' W 093°19'0 0.0
2018-Jun-23 22:00N 30°06' W 093°19'2 4.1
2018-Jun-23 21:30N 30°04' W 093°20'2 3.0
2018-Jun-23 21:00N 30°04' W 093°22'0 0.0
2018-Jun-23 20:30N 30°04' W 093°22'0 0.0
2018-Jun-23 20:00N 30°04' W 093°22'0 0.0
2018-Jun-23 19:30N 30°04' W 093°22'0 0.0
2018-Jun-23 19:00N 30°04' W 093°22'0 0.0
2018-Jun-23 18:30N 30°04' W 093°22'0 0.0
2018-Jun-23 18:00N 30°04' W 093°22'0 0.0
2018-Jun-23 17:28N 30°04' W 093°22'0 0.0
2018-Jun-23 16:58N 30°04' W 093°22'0 0.0
2018-Jun-23 16:30N 30°04' W 093°22'0 0.0
2018-Jun-23 16:00N 30°04' W 093°22'0 0.0
2018-Jun-23 15:28N 30°04' W 093°22'0 0.0
2018-Jun-23 15:00N 30°04' W 093°22'0 0.0
2018-Jun-23 14:30N 30°04' W 093°22'0 0.2
2018-Jun-23 14:00N 30°04' W 093°22'0 0.0
2018-Jun-23 13:29N 30°04' W 093°22'0 0.0
2018-Jun-23 13:00N 30°04' W 093°22'0 0.0
2018-Jun-23 12:30N 30°04' W 093°22'0 0.0
2018-Jun-23 12:00N 30°04' W 093°22'0 0.0
2018-Jun-23 11:30N 30°04' W 093°22'0 0.0
2018-Jun-23 11:00N 30°04' W 093°22'0 0.2
2018-Jun-23 10:30N 30°04' W 093°22'0 0.2
2018-Jun-23 10:00N 30°04' W 093°22'0 0.0
2018-Jun-23 09:30N 30°04' W 093°22'0 0.0
2018-Jun-23 09:00N 30°04' W 093°22'0 0.1
2018-Jun-23 08:30N 30°04' W 093°22'1 2.4
2018-Jun-23 08:00N 30°04' W 093°21'2 3.1
2018-Jun-23 07:30N 30°05' W 093°20'2 4.4
2018-Jun-23 07:00N 30°08' W 093°20'1 1.2
2018-Jun-23 06:30N 30°08' W 093°19'0 0.0
2018-Jun-23 06:00N 30°08' W 093°19'0 0.0
2018-Jun-23 05:30N 30°08' W 093°19'0 0.0
2018-Jun-23 05:00N 30°08' W 093°19'0 0.0
2018-Jun-23 04:30N 30°08' W 093°19'0 0.0
2018-Jun-23 04:00N 30°08' W 093°19'0 0.0
2018-Jun-23 03:30N 30°08' W 093°19'0 0.0
2018-Jun-23 03:00N 30°08' W 093°19'0 0.0
2018-Jun-23 02:30N 30°08' W 093°19'0 0.0
2018-Jun-23 02:00N 30°08' W 093°19'0 0.0
2018-Jun-23 01:30N 30°08' W 093°19'0 0.0
2018-Jun-23 01:00N 30°08' W 093°19'0 0.0
2018-Jun-23 00:30N 30°08' W 093°19'0 0.0
2018-Jun-23 00:00N 30°08' W 093°19'0 0.0
2018-Jun-22 23:30N 30°08' W 093°19'0 0.0
2018-Jun-22 23:00N 30°08' W 093°19'0 0.0
2018-Jun-22 22:30N 30°08' W 093°19'0 0.0
2018-Jun-22 21:58N 30°08' W 093°19'0 0.0
2018-Jun-22 21:30N 30°08' W 093°19'0 0.0
2018-Jun-22 21:00N 30°08' W 093°19'0 0.0
2018-Jun-22 20:30N 30°08' W 093°19'0 0.0
2018-Jun-22 20:00N 30°08' W 093°19'0 0.0
2018-Jun-22 19:30N 30°08' W 093°19'0 0.0
2018-Jun-22 19:00N 30°08' W 093°19'0 0.0
2018-Jun-22 18:30N 30°08' W 093°19'0 0.6
2018-Jun-22 18:00N 30°08' W 093°20'2 3.4
2018-Jun-22 17:30N 30°06' W 093°20'3 5.6
2018-Jun-22 17:00N 30°04' W 093°21'1 1.2
2018-Jun-22 16:30N 30°04' W 093°22'3 5.6
2018-Jun-22 16:00N 30°06' W 093°20'3 5.0
2018-Jun-22 15:30N 30°08' W 093°19'0 0.0
2018-Jun-22 14:58N 30°08' W 093°19'0 0.0
2018-Jun-22 14:30N 30°08' W 093°19'0 0.0
2018-Jun-22 14:00N 30°08' W 093°19'0 0.0
2018-Jun-22 13:30N 30°08' W 093°19'0 0.0
2018-Jun-22 13:00N 30°08' W 093°19'0 0.0
2018-Jun-22 12:29N 30°08' W 093°19'0 0.0
2018-Jun-22 11:56N 30°08' W 093°19'0 0.0
2018-Jun-22 11:26N 30°08' W 093°19'0 0.0
2018-Jun-22 10:59N 30°08' W 093°19'0 0.0
2018-Jun-22 10:30N 30°08' W 093°19'0 0.0
2018-Jun-22 10:00N 30°08' W 093°19'0 0.0
2018-Jun-22 09:30N 30°08' W 093°19'0 0.0
2018-Jun-22 08:57N 30°08' W 093°19'0 0.0
2018-Jun-22 08:30N 30°08' W 093°19'0 0.0
2018-Jun-22 07:59N 30°08' W 093°19'0 0.0
2018-Jun-22 07:30N 30°08' W 093°19'0 0.0
2018-Jun-22 06:59N 30°08' W 093°19'0 0.0
2018-Jun-22 06:29N 30°08' W 093°19'0 0.0
2018-Jun-22 06:00N 30°08' W 093°19'0 0.0
2018-Jun-22 05:30N 30°08' W 093°19'0 0.0
2018-Jun-22 05:00N 30°08' W 093°19'0 0.0
2018-Jun-22 04:30N 30°08' W 093°19'0 0.0
2018-Jun-22 03:59N 30°08' W 093°19'0 0.0
2018-Jun-22 03:30N 30°08' W 093°19'0 0.0
2018-Jun-22 02:59N 30°08' W 093°19'2 3.4
2018-Jun-22 02:30N 30°07' W 093°20'2 4.3
2018-Jun-22 02:00N 30°04' W 093°20'1 2.7
2018-Jun-22 01:30N 30°04' W 093°22'0 0.6
2018-Jun-22 01:00N 30°04' W 093°21'0 0.0
2018-Jun-22 00:30N 30°04' W 093°21'0 0.0
2018-Jun-22 00:00N 30°04' W 093°21'0 0.0
2018-Jun-21 23:30N 30°04' W 093°21'0 0.0
2018-Jun-21 23:00N 30°04' W 093°21'1 2.7
2018-Jun-21 22:30N 30°05' W 093°20'2 3.8
2018-Jun-21 22:00N 30°06' W 093°19'1 1.1
2018-Jun-21 21:30N 30°06' W 093°18'0 0.0
2018-Jun-21 21:00N 30°06' W 093°18'0 0.0
2018-Jun-21 20:30N 30°06' W 093°18'2 3.1
2018-Jun-21 20:00N 30°05' W 093°20'3 5.0
2018-Jun-21 19:30N 30°04' W 093°22'0 0.0
2018-Jun-21 19:00N 30°04' W 093°22'0 0.0
2018-Jun-21 18:30N 30°04' W 093°22'0 0.0
2018-Jun-21 18:00N 30°04' W 093°22'0 0.0
2018-Jun-21 17:30N 30°04' W 093°22'0 0.0
2018-Jun-21 17:00N 30°04' W 093°22'0 0.0
2018-Jun-21 16:29N 30°04' W 093°22'0 0.0
2018-Jun-21 16:00N 30°04' W 093°22'0 0.0
2018-Jun-21 15:30N 30°04' W 093°22'0 0.0
2018-Jun-21 15:00N 30°04' W 093°22'0 0.0
2018-Jun-21 14:30N 30°04' W 093°22'0 0.0
2018-Jun-21 14:00N 30°04' W 093°22'0 0.0
2018-Jun-21 13:30N 30°04' W 093°22'0 0.0
2018-Jun-21 13:00N 30°04' W 093°22'0 0.0
2018-Jun-21 12:30N 30°04' W 093°22'0 0.0
2018-Jun-21 12:00N 30°04' W 093°22'0 0.0
2018-Jun-21 11:30N 30°04' W 093°22'0 0.0
2018-Jun-21 11:00N 30°04' W 093°22'0 0.0
2018-Jun-21 10:30N 30°04' W 093°22'0 0.0
2018-Jun-21 10:00N 30°04' W 093°22'0 0.0
2018-Jun-21 09:30N 30°04' W 093°22'0 0.0
2018-Jun-21 09:00N 30°04' W 093°22'0 0.0
2018-Jun-21 08:30N 30°04' W 093°22'0 0.0
2018-Jun-21 07:59N 30°04' W 093°22'0 0.0
2018-Jun-21 07:30N 30°04' W 093°22'0 0.0
2018-Jun-21 07:00N 30°04' W 093°22'0 0.0
2018-Jun-21 06:30N 30°04' W 093°22'0 0.0
2018-Jun-21 06:00N 30°04' W 093°22'0 0.0
2018-Jun-21 05:30N 30°04' W 093°22'0 0.0
2018-Jun-21 05:00N 30°04' W 093°22'0 0.0
2018-Jun-21 04:30N 30°04' W 093°22'0 0.0
2018-Jun-21 04:00N 30°04' W 093°22'0 0.0
2018-Jun-21 03:30N 30°04' W 093°22'0 0.0
2018-Jun-21 03:00N 30°04' W 093°22'0 0.0
2018-Jun-21 02:30N 30°04' W 093°22'0 0.0
2018-Jun-21 02:00N 30°04' W 093°22'0 0.0
2018-Jun-21 01:30N 30°04' W 093°22'0 0.0
2018-Jun-21 01:00N 30°04' W 093°22'0 0.0
2018-Jun-21 00:30N 30°04' W 093°22'0 0.0
2018-Jun-21 00:00N 30°04' W 093°22'0 0.0
2018-Jun-20 23:30N 30°04' W 093°22'0 0.0
2018-Jun-20 23:00N 30°04' W 093°22'0 0.0
2018-Jun-20 22:29N 30°04' W 093°22'0 0.0
2018-Jun-20 22:00N 30°04' W 093°22'0 0.0
2018-Jun-20 21:30N 30°04' W 093°22'0 0.0
2018-Jun-20 21:00N 30°04' W 093°22'0 0.0
2018-Jun-20 20:30N 30°04' W 093°22'0 0.0
2018-Jun-20 19:59N 30°04' W 093°22'0 0.0
2018-Jun-20 19:30N 30°04' W 093°22'0 0.0
2018-Jun-20 19:00N 30°04' W 093°22'0 0.0
2018-Jun-20 18:30N 30°04' W 093°22'0 0.0
2018-Jun-20 18:00N 30°04' W 093°22'0 0.0
2018-Jun-20 17:30N 30°04' W 093°22'0 0.0
2018-Jun-20 17:00N 30°04' W 093°22'0 0.0
2018-Jun-20 16:30N 30°04' W 093°22'0 0.0
2018-Jun-20 16:00N 30°04' W 093°22'0 0.0
2018-Jun-20 15:27N 30°04' W 093°22'0 0.7
2018-Jun-20 14:59N 30°04' W 093°21'0 0.5
2018-Jun-20 14:30N 30°04' W 093°22'3 6.2
2018-Jun-20 14:00N 30°06' W 093°20'1 2.7
2018-Jun-20 13:30N 30°08' W 093°20'4 7.7
2018-Jun-20 13:00N 30°04' W 093°21'1 1.4
2018-Jun-20 12:29N 30°04' W 093°22'0 0.0
2018-Jun-20 11:58N 30°04' W 093°22'0 0.0
2018-Jun-20 11:30N 30°04' W 093°22'0 0.0
2018-Jun-20 10:58N 30°04' W 093°22'0 0.0
2018-Jun-20 10:30N 30°04' W 093°22'0 0.0
2018-Jun-20 10:00N 30°04' W 093°22'0 0.0
2018-Jun-20 09:29N 30°04' W 093°22'0 0.0
2018-Jun-20 09:00N 30°04' W 093°22'0 0.0
2018-Jun-20 08:30N 30°04' W 093°22'0 0.0
2018-Jun-20 08:00N 30°04' W 093°22'0 0.0
2018-Jun-20 07:30N 30°04' W 093°22'0 0.0
2018-Jun-20 07:00N 30°04' W 093°22'0 0.0
2018-Jun-20 06:30N 30°04' W 093°22'0 0.0
2018-Jun-20 06:00N 30°04' W 093°22'0 0.0
2018-Jun-20 05:30N 30°04' W 093°22'0 0.0
2018-Jun-20 05:00N 30°04' W 093°22'0 0.0
2018-Jun-20 04:29N 30°04' W 093°22'0 0.0
2018-Jun-20 04:00N 30°04' W 093°22'0 0.0
2018-Jun-20 03:30N 30°04' W 093°22'0 0.0
2018-Jun-20 03:00N 30°04' W 093°22'0 0.0
2018-Jun-20 02:30N 30°04' W 093°22'0 0.0
2018-Jun-20 02:00N 30°04' W 093°22'0 0.0
2018-Jun-20 01:30N 30°04' W 093°22'0 0.0
2018-Jun-20 01:00N 30°04' W 093°22'0 0.0
2018-Jun-20 00:30N 30°04' W 093°22'0 0.1
2018-Jun-20 00:00N 30°04' W 093°22'3 5.1
2018-Jun-19 23:30N 30°04' W 093°25'3 6.2
2018-Jun-19 23:00N 30°04' W 093°28'3 6.3
2018-Jun-19 22:30N 30°04' W 093°32'3 6.3
2018-Jun-19 22:00N 30°04' W 093°36'3 6.7
2018-Jun-19 21:30N 30°04' W 093°39'3 6.8
2018-Jun-19 21:00N 30°03' W 093°43'3 7.0
2018-Jun-19 20:30N 30°00' W 093°46'4 7.2
2018-Jun-19 20:00N 29°59' W 093°50'2 4.5
2018-Jun-19 19:30N 29°59' W 093°52'2 4.4
2018-Jun-19 19:00N 29°59' W 093°55'2 4.2
2018-Jun-19 18:30N 29°60' W 093°57'0 0.1
2018-Jun-19 18:00N 29°60' W 093°57'0 0.0
2018-Jun-19 17:30N 29°60' W 093°57'1 2.9
2018-Jun-19 17:00N 30°01' W 093°58'1 1.6
2018-Jun-19 16:30N 30°01' W 093°59'0 0.2
2018-Jun-19 16:00N 30°01' W 093°59'0 0.0
2018-Jun-19 15:30N 30°01' W 093°59'0 0.0
2018-Jun-19 15:00N 30°01' W 093°59'0 0.0
2018-Jun-19 14:30N 30°01' W 093°59'0 0.0
2018-Jun-19 14:00N 30°01' W 093°59'0 0.0
2018-Jun-19 13:30N 30°01' W 093°59'0 0.0
2018-Jun-19 13:00N 30°01' W 093°59'0 0.0
2018-Jun-19 12:30N 30°01' W 093°59'0 0.0
2018-Jun-19 12:00N 30°01' W 093°59'0 0.0
2018-Jun-19 11:30N 30°01' W 093°59'0 0.0
2018-Jun-19 11:00N 30°01' W 093°59'0 0.0
2018-Jun-19 10:30N 30°01' W 093°59'0 0.0
2018-Jun-19 10:00N 30°01' W 093°59'0 0.0
2018-Jun-19 09:30N 30°01' W 093°59'0 0.0
2018-Jun-19 09:00N 30°01' W 093°59'0 0.0
2018-Jun-19 08:30N 30°01' W 093°59'0 0.0
2018-Jun-19 08:00N 30°01' W 093°59'0 0.0
2018-Jun-19 07:30N 30°01' W 093°59'0 0.0
2018-Jun-19 07:00N 30°01' W 093°59'0 0.0
2018-Jun-19 06:30N 30°01' W 093°59'0 0.0
2018-Jun-19 06:00N 30°01' W 093°59'0 0.0
2018-Jun-19 05:30N 30°01' W 093°59'0 0.0
2018-Jun-19 05:00N 30°01' W 093°59'0 0.0
2018-Jun-19 04:30N 30°01' W 093°59'0 0.0
2018-Jun-19 04:00N 30°01' W 093°59'0 0.0
2018-Jun-19 03:30N 30°01' W 093°59'0 0.0
2018-Jun-19 03:00N 30°01' W 093°59'0 0.0
2018-Jun-19 02:30N 30°01' W 093°59'0 0.0
2018-Jun-19 02:00N 30°01' W 093°59'0 0.0
2018-Jun-19 01:30N 30°01' W 093°59'0 0.0
2018-Jun-19 01:00N 30°01' W 093°59'0 0.0
2018-Jun-19 00:30N 30°01' W 093°59'0 0.0
2018-Jun-19 00:00N 30°01' W 093°59'0 0.0
2018-Jun-18 23:30N 30°01' W 093°59'0 0.0
2018-Jun-18 23:00N 30°01' W 093°59'0 0.0
2018-Jun-18 22:30N 30°01' W 093°59'0 0.0
2018-Jun-18 22:00N 30°01' W 093°59'0 0.0
2018-Jun-18 21:30N 30°01' W 093°59'0 0.0
2018-Jun-18 21:00N 30°01' W 093°59'0 0.0
2018-Jun-18 20:30N 30°01' W 093°59'0 0.0
2018-Jun-18 20:00N 30°01' W 093°59'0 0.0
2018-Jun-18 19:30N 30°01' W 093°59'0 0.1
2018-Jun-18 19:00N 30°01' W 093°59'1 1.4
2018-Jun-18 18:30N 30°01' W 093°59'0 0.2
2018-Jun-18 18:00N 30°01' W 093°59'0 0.0
2018-Jun-18 17:30N 30°01' W 093°59'0 0.0
2018-Jun-18 17:00N 30°01' W 093°59'0 0.0
2018-Jun-18 16:30N 30°01' W 093°59'0 0.0
2018-Jun-18 16:00N 30°01' W 093°59'0 0.0
2018-Jun-18 15:30N 30°01' W 093°59'0 0.0
2018-Jun-18 15:00N 30°01' W 093°59'0 0.0
2018-Jun-18 14:30N 30°01' W 093°59'0 0.0
2018-Jun-18 14:00N 30°01' W 093°59'0 0.0
2018-Jun-18 13:30N 30°01' W 093°59'0 0.0
2018-Jun-18 13:00N 30°01' W 093°59'0 0.0
2018-Jun-18 12:30N 30°01' W 093°59'0 0.0
2018-Jun-18 12:00N 30°01' W 093°59'0 0.0
2018-Jun-18 11:30N 30°01' W 093°59'0 0.0
2018-Jun-18 11:00N 30°01' W 093°59'0 0.0
2018-Jun-18 10:30N 30°01' W 093°59'0 0.0
2018-Jun-18 10:00N 30°01' W 093°59'0 0.0
2018-Jun-18 09:30N 30°01' W 093°59'0 0.0
2018-Jun-18 09:00N 30°01' W 093°59'0 0.0
2018-Jun-18 08:30N 30°01' W 093°59'0 0.0
2018-Jun-18 08:00N 30°01' W 093°59'0 0.0
2018-Jun-18 07:30N 30°01' W 093°59'0 0.0
2018-Jun-18 07:00N 30°01' W 093°59'0 0.0
2018-Jun-18 06:30N 30°01' W 093°59'0 0.0
2018-Jun-18 06:00N 30°01' W 093°59'0 0.0
2018-Jun-18 05:30N 30°01' W 093°59'0 0.0
2018-Jun-18 05:00N 30°01' W 093°59'0 0.0
2018-Jun-18 04:30N 30°01' W 093°59'0 0.0
2018-Jun-18 04:00N 30°01' W 093°59'0 0.0
2018-Jun-18 03:30N 30°01' W 093°59'0 0.0
2018-Jun-18 03:00N 30°01' W 093°59'0 0.0
2018-Jun-18 02:30N 30°01' W 093°59'0 0.0
2018-Jun-18 02:00N 30°01' W 093°59'0 0.0
2018-Jun-18 01:30N 30°01' W 093°59'0 0.0
2018-Jun-18 01:00N 30°01' W 093°59'0 0.0
2018-Jun-18 00:30N 30°01' W 093°59'0 0.0
2018-Jun-18 00:00N 30°01' W 093°59'0 0.0
2018-Jun-17 23:30N 30°01' W 093°59'0 0.0
2018-Jun-17 23:00N 30°01' W 093°59'0 0.0
2018-Jun-17 22:30N 30°01' W 093°59'0 0.0
2018-Jun-17 22:00N 30°01' W 093°59'0 0.0
2018-Jun-17 21:30N 30°01' W 093°59'0 0.0
2018-Jun-17 21:00N 30°01' W 093°59'0 0.0
2018-Jun-17 20:30N 30°01' W 093°59'0 0.0
2018-Jun-17 20:00N 30°01' W 093°59'0 0.0
2018-Jun-17 19:30N 30°01' W 093°59'0 0.0
2018-Jun-17 19:00N 30°01' W 093°59'0 0.0
2018-Jun-17 18:30N 30°01' W 093°59'0 0.0
2018-Jun-17 18:00N 30°01' W 093°59'0 0.0
2018-Jun-17 17:30N 30°01' W 093°59'0 0.0
2018-Jun-17 17:00N 30°01' W 093°59'0 0.7
2018-Jun-17 16:30N 30°01' W 093°59'0 0.0
2018-Jun-17 16:00N 30°01' W 093°59'0 0.0
2018-Jun-17 15:30N 30°01' W 093°59'0 0.0
2018-Jun-17 15:01N 30°01' W 093°59'0 0.0
2018-Jun-17 14:30N 30°01' W 093°59'0 0.0
2018-Jun-17 14:00N 30°01' W 093°59'0 0.0
2018-Jun-17 13:30N 30°01' W 093°59'0 0.0
2018-Jun-17 13:00N 30°01' W 093°59'0 0.0
2018-Jun-17 12:30N 30°01' W 093°59'0 0.0
2018-Jun-17 12:00N 30°01' W 093°59'0 0.0
2018-Jun-17 11:30N 30°01' W 093°59'0 0.0
2018-Jun-17 11:00N 30°01' W 093°59'0 0.0
2018-Jun-17 10:30N 30°01' W 093°59'0 0.0
2018-Jun-17 10:00N 30°01' W 093°59'0 0.0
2018-Jun-17 09:30N 30°01' W 093°59'0 0.0
2018-Jun-17 09:00N 30°01' W 093°59'0 0.0
2018-Jun-17 08:29N 30°01' W 093°59'0 0.0
2018-Jun-17 08:00N 30°01' W 093°59'0 0.7
2018-Jun-17 07:30N 30°01' W 093°59'0 0.3
2018-Jun-17 07:00N 30°01' W 093°59'1 3.0
2018-Jun-17 06:30N 30°01' W 093°57'3 6.8
2018-Jun-17 06:00N 29°59' W 093°54'3 5.7
2018-Jun-17 05:30N 29°58' W 093°51'4 7.7
2018-Jun-17 05:00N 29°60' W 093°47'3 6.7
2018-Jun-17 04:30N 30°02' W 093°44'3 5.2
2018-Jun-17 03:52N 30°04' W 093°41'2 6.4
2018-Jun-17 03:30N 30°04' W 093°38'4 7.2
2018-Jun-17 03:00N 30°04' W 093°34'4 7.0
2018-Jun-17 02:30N 30°04' W 093°30'4 7.3
2018-Jun-17 02:00N 30°04' W 093°25'3 5.4
2018-Jun-17 01:29N 30°04' W 093°22'3 5.7
2018-Jun-17 01:00N 30°05' W 093°20'3 6.0
2018-Jun-17 00:30N 30°08' W 093°19'0 0.1
2018-Jun-17 00:00N 30°08' W 093°19'0 0.0
2018-Jun-16 23:30N 30°08' W 093°19'0 0.0
2018-Jun-16 23:00N 30°08' W 093°19'0 0.0
2018-Jun-16 22:30N 30°08' W 093°19'0 0.0
2018-Jun-16 22:00N 30°08' W 093°19'0 0.0
2018-Jun-16 21:30N 30°08' W 093°19'0 0.0
2018-Jun-16 20:58N 30°08' W 093°19'0 0.0
2018-Jun-16 20:29N 30°08' W 093°19'0 0.0
2018-Jun-16 20:00N 30°08' W 093°19'0 0.0
2018-Jun-16 19:30N 30°08' W 093°19'0 0.0
2018-Jun-16 19:00N 30°08' W 093°19'0 0.0
2018-Jun-16 18:30N 30°08' W 093°19'0 0.0
2018-Jun-16 18:00N 30°08' W 093°19'0 0.0
2018-Jun-16 17:30N 30°08' W 093°19'0 0.0
2018-Jun-16 17:00N 30°08' W 093°19'0 0.0
2018-Jun-16 16:30N 30°08' W 093°19'0 0.0
2018-Jun-16 16:00N 30°08' W 093°19'0 0.0
2018-Jun-16 15:30N 30°08' W 093°19'0 0.0
2018-Jun-16 15:00N 30°08' W 093°19'0 0.0
2018-Jun-16 14:30N 30°08' W 093°19'0 0.0
2018-Jun-16 14:00N 30°08' W 093°19'0 0.0
2018-Jun-16 13:30N 30°08' W 093°19'0 0.0
2018-Jun-16 13:00N 30°08' W 093°19'0 0.0
2018-Jun-16 12:29N 30°08' W 093°19'0 0.0
2018-Jun-16 12:00N 30°08' W 093°19'0 0.0
2018-Jun-16 11:30N 30°08' W 093°19'1 1.6
2018-Jun-16 11:00N 30°08' W 093°20'1 1.4
2018-Jun-16 10:30N 30°07' W 093°20'1 3.0
2018-Jun-16 10:00N 30°06' W 093°19'1 2.3
2018-Jun-16 09:30N 30°05' W 093°18'1 1.9
2018-Jun-16 09:00N 30°05' W 093°17'1 1.4
2018-Jun-16 08:30N 30°04' W 093°16'0 0.0
2018-Jun-16 08:00N 30°04' W 093°16'0 0.0
2018-Jun-16 07:28N 30°04' W 093°16'0 0.0
2018-Jun-16 07:00N 30°04' W 093°16'0 0.0
2018-Jun-16 06:30N 30°04' W 093°16'0 0.0
2018-Jun-16 06:00N 30°04' W 093°16'0 0.0
2018-Jun-16 05:30N 30°04' W 093°16'0 0.0
2018-Jun-16 05:00N 30°04' W 093°16'0 0.0
2018-Jun-16 04:30N 30°04' W 093°16'0 0.0
2018-Jun-16 04:00N 30°04' W 093°16'0 0.4
2018-Jun-16 03:30N 30°04' W 093°16'1 1.1
2018-Jun-16 03:00N 30°04' W 093°16'1 1.1
2018-Jun-16 02:30N 30°03' W 093°16'0 0.0
2018-Jun-16 02:00N 30°03' W 093°16'0 0.1
2018-Jun-16 01:30N 30°03' W 093°16'1 1.6
2018-Jun-16 01:00N 30°02' W 093°16'1 1.1
2018-Jun-16 00:30N 30°02' W 093°15'1 2.1
2018-Jun-16 00:00N 30°01' W 093°14'2 3.6
2018-Jun-15 23:30N 29°60' W 093°13'1 2.0
2018-Jun-15 23:00N 29°59' W 093°12'2 3.6
2018-Jun-15 22:30N 29°58' W 093°11'0 0.3
2018-Jun-15 22:00N 29°58' W 093°11'0 0.0
2018-Jun-15 21:30N 29°58' W 093°11'0 0.0
2018-Jun-15 21:00N 29°58' W 093°11'0 0.0
2018-Jun-15 20:30N 29°58' W 093°11'0 0.0
2018-Jun-15 20:00N 29°58' W 093°11'0 0.0
2018-Jun-15 19:30N 29°58' W 093°11'0 0.0
2018-Jun-15 19:00N 29°58' W 093°11'0 0.0
2018-Jun-15 18:30N 29°58' W 093°11'0 0.0
2018-Jun-15 18:00N 29°58' W 093°11'0 0.0
2018-Jun-15 17:30N 29°58' W 093°11'0 0.0
2018-Jun-15 17:00N 29°58' W 093°11'0 0.0
2018-Jun-15 16:30N 29°58' W 093°11'0 0.0
2018-Jun-15 16:00N 29°58' W 093°11'0 0.0
2018-Jun-15 15:30N 29°58' W 093°11'1 2.1
2018-Jun-15 15:00N 29°57' W 093°10'0 0.0
2018-Jun-15 14:30N 29°57' W 093°10'0 0.0
2018-Jun-15 13:58N 29°57' W 093°10'0 0.0
2018-Jun-15 13:30N 29°57' W 093°10'0 0.0
2018-Jun-15 13:00N 29°57' W 093°10'0 0.0
2018-Jun-15 12:30N 29°57' W 093°10'0 0.0
2018-Jun-15 12:00N 29°57' W 093°10'0 0.0
2018-Jun-15 11:30N 29°57' W 093°10'0 0.0
2018-Jun-15 11:00N 29°57' W 093°10'0 0.0
2018-Jun-15 10:30N 29°57' W 093°10'0 0.0
2018-Jun-15 10:00N 29°57' W 093°10'0 0.0
2018-Jun-15 09:30N 29°57' W 093°10'0 0.0
2018-Jun-15 09:00N 29°57' W 093°10'0 0.0
2018-Jun-15 08:30N 29°57' W 093°10'0 0.0
2018-Jun-15 08:00N 29°57' W 093°10'0 0.0
2018-Jun-15 07:30N 29°57' W 093°10'0 0.0
2018-Jun-15 07:00N 29°57' W 093°10'0 0.0
2018-Jun-15 06:30N 29°57' W 093°10'0 0.0
2018-Jun-15 06:00N 29°57' W 093°10'0 0.0
2018-Jun-15 05:30N 29°57' W 093°10'0 0.0
2018-Jun-15 04:58N 29°57' W 093°10'0 0.0
2018-Jun-15 04:30N 29°57' W 093°10'0 0.1
2018-Jun-15 04:00N 29°57' W 093°10'0 0.1
2018-Jun-15 03:30N 29°57' W 093°10'0 0.1
2018-Jun-15 03:00N 29°57' W 093°10'0 0.0
2018-Jun-15 02:30N 29°57' W 093°10'  
Track history (hours):
 
Tides and Currents Weather Stations Pressure Air Temp Water Temp Dewpoint Dewpoint Depression Visibility Wind Speed Wind Dir Waves Ship Positions

Jackie Gonsoulin

Owner: LeBeouf Bros. Towing, LLC, Houma, LA. More information available from US FCC via Universal Licensing System and Coast Guard Vessel Documentation Center.

Last reported at 2018-Jun-25 02:17 UTC. Time now 2018-Jun-25 13:51 UTC.
Position N 29°51' W 091°55'.

Length 23 m.

Type: Tug. MMSI: 367332930.

Date/timePositionNaut miles runAvg speedWind from/ knotsBaromVisibWave heightAir tempDewpointWater temp
2018-Jun-25 02:17N 29°51' W 091°55'2 7.1
2018-Jun-25 02:00N 29°50' W 091°58'4 7.3
2018-Jun-25 01:30N 29°49' W 092°02'3 6.8
2018-Jun-25 01:00N 29°48' W 092°05'3 6.8
2018-Jun-25 00:30N 29°47' W 092°09'3 5.8
2018-Jun-25 00:00N 29°47' W 092°12'1 1.8
2018-Jun-24 23:30N 29°47' W 092°13'0 0.0
2018-Jun-24 23:00N 29°47' W 092°13'0 0.0
2018-Jun-24 22:30N 29°48' W 092°13'0 0.0
2018-Jun-24 22:00N 29°48' W 092°13'0 0.0
2018-Jun-24 21:30N 29°48' W 092°13'0 0.2
2018-Jun-24 21:00N 29°48' W 092°13'1 1.6
2018-Jun-24 20:30N 29°48' W 092°14'1 2.3
2018-Jun-24 20:00N 29°48' W 092°15'0 0.0
2018-Jun-24 19:30N 29°48' W 092°15'0 0.0
2018-Jun-24 18:59N 29°48' W 092°15'0 0.0
2018-Jun-24 18:30N 29°48' W 092°15'0 0.8
2018-Jun-24 18:00N 29°48' W 092°16'0 0.9
2018-Jun-24 17:30N 29°49' W 092°16'1 1.3
2018-Jun-24 17:00N 29°49' W 092°17'0 0.0
2018-Jun-24 16:30N 29°49' W 092°17'3 5.1
2018-Jun-24 16:00N 29°50' W 092°19'37 6.2
2018-Jun-24 10:03N 29°56' W 093°02'0 6.2
2018-Jun-24 09:59N 29°56' W 093°02'2 4.3
2018-Jun-24 09:30N 29°56' W 093°04'3 5.9
2018-Jun-24 09:00N 29°56' W 093°08'2 4.1
2018-Jun-24 08:30N 29°57' W 093°10'3 5.5
2018-Jun-24 08:00N 29°59' W 093°12'2 4.6
2018-Jun-24 07:30N 30°01' W 093°14'2 3.3
2018-Jun-24 07:00N 30°02' W 093°15'2 3.7
2018-Jun-24 06:30N 30°04' W 093°16'2 3.2
2018-Jun-24 06:00N 30°05' W 093°17'1 2.7
2018-Jun-24 05:30N 30°06' W 093°18'1 1.4
2018-Jun-24 05:00N 30°06' W 093°19'0 0.2
2018-Jun-24 04:30N 30°06' W 093°19'0 0.0
2018-Jun-24 04:00N 30°06' W 093°19'0 0.2
2018-Jun-24 03:30N 30°06' W 093°19'0 0.0
2018-Jun-24 03:00N 30°06' W 093°19'0 0.0
2018-Jun-24 02:30N 30°06' W 093°19'0 0.0
2018-Jun-24 02:00N 30°06' W 093°19'0 0.1
2018-Jun-24 01:30N 30°06' W 093°19'0 0.0
2018-Jun-24 01:00N 30°06' W 093°19'0 0.1
2018-Jun-24 00:30N 30°06' W 093°19'0 0.0
2018-Jun-24 00:00N 30°06' W 093°19'0 0.0
2018-Jun-23 23:30N 30°06' W 093°19'0 0.0
2018-Jun-23 23:00N 30°06' W 093°19'0 0.0
2018-Jun-23 22:30N 30°06' W 093°19'0 0.0
2018-Jun-23 22:00N 30°06' W 093°19'2 4.1
2018-Jun-23 21:30N 30°04' W 093°20'2 3.0
2018-Jun-23 21:00N 30°04' W 093°22'0 0.0
2018-Jun-23 20:30N 30°04' W 093°22'0 0.0
2018-Jun-23 20:00N 30°04' W 093°22'0 0.0
2018-Jun-23 19:30N 30°04' W 093°22'0 0.0
2018-Jun-23 19:00N 30°04' W 093°22'0 0.0
2018-Jun-23 18:30N 30°04' W 093°22'0 0.0
2018-Jun-23 18:00N 30°04' W 093°22'0 0.0
2018-Jun-23 17:28N 30°04' W 093°22'0 0.0
2018-Jun-23 16:58N 30°04' W 093°22'0 0.0
2018-Jun-23 16:30N 30°04' W 093°22'0 0.0
2018-Jun-23 16:00N 30°04' W 093°22'0 0.0
2018-Jun-23 15:28N 30°04' W 093°22'0 0.0
2018-Jun-23 15:00N 30°04' W 093°22'0 0.0
2018-Jun-23 14:30N 30°04' W 093°22'0 0.2
2018-Jun-23 14:00N 30°04' W 093°22'0 0.0
2018-Jun-23 13:29N 30°04' W 093°22'0 0.0
2018-Jun-23 13:00N 30°04' W 093°22'0 0.0
2018-Jun-23 12:30N 30°04' W 093°22'0 0.0
2018-Jun-23 12:00N 30°04' W 093°22'0 0.0
2018-Jun-23 11:30N 30°04' W 093°22'0 0.0
2018-Jun-23 11:00N 30°04' W 093°22'0 0.2
2018-Jun-23 10:30N 30°04' W 093°22'0 0.2
2018-Jun-23 10:00N 30°04' W 093°22'0 0.0
2018-Jun-23 09:30N 30°04' W 093°22'0 0.0
2018-Jun-23 09:00N 30°04' W 093°22'0 0.1
2018-Jun-23 08:30N 30°04' W 093°22'1 2.4
2018-Jun-23 08:00N 30°04' W 093°21'2 3.1
2018-Jun-23 07:30N 30°05' W 093°20'2 4.4
2018-Jun-23 07:00N 30°08' W 093°20'1 1.2
2018-Jun-23 06:30N 30°08' W 093°19'0 0.0
2018-Jun-23 06:00N 30°08' W 093°19'0 0.0
2018-Jun-23 05:30N 30°08' W 093°19'0 0.0
2018-Jun-23 05:00N 30°08' W 093°19'0 0.0
2018-Jun-23 04:30N 30°08' W 093°19'0 0.0
2018-Jun-23 04:00N 30°08' W 093°19'0 0.0
2018-Jun-23 03:30N 30°08' W 093°19'0 0.0
2018-Jun-23 03:00N 30°08' W 093°19'0 0.0
2018-Jun-23 02:30N 30°08' W 093°19'0 0.0
2018-Jun-23 02:00N 30°08' W 093°19'0 0.0
2018-Jun-23 01:30N 30°08' W 093°19'0 0.0
2018-Jun-23 01:00N 30°08' W 093°19'0 0.0
2018-Jun-23 00:30N 30°08' W 093°19'0 0.0
2018-Jun-23 00:00N 30°08' W 093°19'0 0.0
2018-Jun-22 23:30N 30°08' W 093°19'0 0.0
2018-Jun-22 23:00N 30°08' W 093°19'0 0.0
2018-Jun-22 22:30N 30°08' W 093°19'0 0.0
2018-Jun-22 21:58N 30°08' W 093°19'0 0.0
2018-Jun-22 21:30N 30°08' W 093°19'0 0.0
2018-Jun-22 21:00N 30°08' W 093°19'0 0.0
2018-Jun-22 20:30N 30°08' W 093°19'0 0.0
2018-Jun-22 20:00N 30°08' W 093°19'0 0.0
2018-Jun-22 19:30N 30°08' W 093°19'0 0.0
2018-Jun-22 19:00N 30°08' W 093°19'0 0.0
2018-Jun-22 18:30N 30°08' W 093°19'0 0.6
2018-Jun-22 18:00N 30°08' W 093°20'2 3.4
2018-Jun-22 17:30N 30°06' W 093°20'3 5.6
2018-Jun-22 17:00N 30°04' W 093°21'1 1.2
2018-Jun-22 16:30N 30°04' W 093°22'3 5.6
2018-Jun-22 16:00N 30°06' W 093°20'3 5.0
2018-Jun-22 15:30N 30°08' W 093°19'0 0.0
2018-Jun-22 14:58N 30°08' W 093°19'0 0.0
2018-Jun-22 14:30N 30°08' W 093°19'0 0.0
2018-Jun-22 14:00N 30°08' W 093°19'0 0.0
2018-Jun-22 13:30N 30°08' W 093°19'0 0.0
2018-Jun-22 13:00N 30°08' W 093°19'0 0.0
2018-Jun-22 12:29N 30°08' W 093°19'0 0.0
2018-Jun-22 11:56N 30°08' W 093°19'0 0.0
2018-Jun-22 11:26N 30°08' W 093°19'0 0.0
2018-Jun-22 10:59N 30°08' W 093°19'0 0.0
2018-Jun-22 10:30N 30°08' W 093°19'0 0.0
2018-Jun-22 10:00N 30°08' W 093°19'0 0.0
2018-Jun-22 09:30N 30°08' W 093°19'0 0.0
2018-Jun-22 08:57N 30°08' W 093°19'0 0.0
2018-Jun-22 08:30N 30°08' W 093°19'0 0.0
2018-Jun-22 07:59N 30°08' W 093°19'0 0.0
2018-Jun-22 07:30N 30°08' W 093°19'0 0.0
2018-Jun-22 06:59N 30°08' W 093°19'0 0.0
2018-Jun-22 06:29N 30°08' W 093°19'0 0.0
2018-Jun-22 06:00N 30°08' W 093°19'0 0.0
2018-Jun-22 05:30N 30°08' W 093°19'0 0.0
2018-Jun-22 05:00N 30°08' W 093°19'0 0.0
2018-Jun-22 04:30N 30°08' W 093°19'0 0.0
2018-Jun-22 03:59N 30°08' W 093°19'0 0.0
2018-Jun-22 03:30N 30°08' W 093°19'0 0.0
2018-Jun-22 02:59N 30°08' W 093°19'2 3.4
2018-Jun-22 02:30N 30°07' W 093°20'2 4.3
2018-Jun-22 02:00N 30°04' W 093°20'1 2.7
2018-Jun-22 01:30N 30°04' W 093°22'0 0.6
2018-Jun-22 01:00N 30°04' W 093°21'0 0.0
2018-Jun-22 00:30N 30°04' W 093°21'0 0.0
2018-Jun-22 00:00N 30°04' W 093°21'0 0.0
2018-Jun-21 23:30N 30°04' W 093°21'0 0.0
2018-Jun-21 23:00N 30°04' W 093°21'1 2.7
2018-Jun-21 22:30N 30°05' W 093°20'2 3.8
2018-Jun-21 22:00N 30°06' W 093°19'1 1.1
2018-Jun-21 21:30N 30°06' W 093°18'0 0.0
2018-Jun-21 21:00N 30°06' W 093°18'0 0.0
2018-Jun-21 20:30N 30°06' W 093°18'2 3.1
2018-Jun-21 20:00N 30°05' W 093°20'3 5.0
2018-Jun-21 19:30N 30°04' W 093°22'0 0.0
2018-Jun-21 19:00N 30°04' W 093°22'0 0.0
2018-Jun-21 18:30N 30°04' W 093°22'0 0.0
2018-Jun-21 18:00N 30°04' W 093°22'0 0.0
2018-Jun-21 17:30N 30°04' W 093°22'0 0.0
2018-Jun-21 17:00N 30°04' W 093°22'0 0.0
2018-Jun-21 16:29N 30°04' W 093°22'0 0.0
2018-Jun-21 16:00N 30°04' W 093°22'0 0.0
2018-Jun-21 15:30N 30°04' W 093°22'0 0.0
2018-Jun-21 15:00N 30°04' W 093°22'0 0.0
2018-Jun-21 14:30N 30°04' W 093°22'0 0.0
2018-Jun-21 14:00N 30°04' W 093°22'0 0.0
2018-Jun-21 13:30N 30°04' W 093°22'0 0.0
2018-Jun-21 13:00N 30°04' W 093°22'0 0.0
2018-Jun-21 12:30N 30°04' W 093°22'0 0.0
2018-Jun-21 12:00N 30°04' W 093°22'0 0.0
2018-Jun-21 11:30N 30°04' W 093°22'0 0.0
2018-Jun-21 11:00N 30°04' W 093°22'0 0.0
2018-Jun-21 10:30N 30°04' W 093°22'0 0.0
2018-Jun-21 10:00N 30°04' W 093°22'0 0.0
2018-Jun-21 09:30N 30°04' W 093°22'0 0.0
2018-Jun-21 09:00N 30°04' W 093°22'0 0.0
2018-Jun-21 08:30N 30°04' W 093°22'0 0.0
2018-Jun-21 07:59N 30°04' W 093°22'0 0.0
2018-Jun-21 07:30N 30°04' W 093°22'0 0.0
2018-Jun-21 07:00N 30°04' W 093°22'0 0.0
2018-Jun-21 06:30N 30°04' W 093°22'0 0.0
2018-Jun-21 06:00N 30°04' W 093°22'0 0.0
2018-Jun-21 05:30N 30°04' W 093°22'0 0.0
2018-Jun-21 05:00N 30°04' W 093°22'0 0.0
2018-Jun-21 04:30N 30°04' W 093°22'0 0.0
2018-Jun-21 04:00N 30°04' W 093°22'0 0.0
2018-Jun-21 03:30N 30°04' W 093°22'0 0.0
2018-Jun-21 03:00N 30°04' W 093°22'0 0.0
2018-Jun-21 02:30N 30°04' W 093°22'0 0.0
2018-Jun-21 02:00N 30°04' W 093°22'0 0.0
2018-Jun-21 01:30N 30°04' W 093°22'0 0.0
2018-Jun-21 01:00N 30°04' W 093°22'0 0.0
2018-Jun-21 00:30N 30°04' W 093°22'0 0.0
2018-Jun-21 00:00N 30°04' W 093°22'0 0.0
2018-Jun-20 23:30N 30°04' W 093°22'0 0.0
2018-Jun-20 23:00N 30°04' W 093°22'0 0.0
2018-Jun-20 22:29N 30°04' W 093°22'0 0.0
2018-Jun-20 22:00N 30°04' W 093°22'0 0.0
2018-Jun-20 21:30N 30°04' W 093°22'0 0.0
2018-Jun-20 21:00N 30°04' W 093°22'0 0.0
2018-Jun-20 20:30N 30°04' W 093°22'0 0.0
2018-Jun-20 19:59N 30°04' W 093°22'0 0.0
2018-Jun-20 19:30N 30°04' W 093°22'0 0.0
2018-Jun-20 19:00N 30°04' W 093°22'0 0.0
2018-Jun-20 18:30N 30°04' W 093°22'0 0.0
2018-Jun-20 18:00N 30°04' W 093°22'0 0.0
2018-Jun-20 17:30N 30°04' W 093°22'0 0.0
2018-Jun-20 17:00N 30°04' W 093°22'0 0.0
2018-Jun-20 16:30N 30°04' W 093°22'0 0.0
2018-Jun-20 16:00N 30°04' W 093°22'0 0.0
2018-Jun-20 15:27N 30°04' W 093°22'0 0.7
2018-Jun-20 14:59N 30°04' W 093°21'0 0.5
2018-Jun-20 14:30N 30°04' W 093°22'3 6.2
2018-Jun-20 14:00N 30°06' W 093°20'1 2.7
2018-Jun-20 13:30N 30°08' W 093°20'4 7.7
2018-Jun-20 13:00N 30°04' W 093°21'1 1.4
2018-Jun-20 12:29N 30°04' W 093°22'0 0.0
2018-Jun-20 11:58N 30°04' W 093°22'0 0.0
2018-Jun-20 11:30N 30°04' W 093°22'0 0.0
2018-Jun-20 10:58N 30°04' W 093°22'0 0.0
2018-Jun-20 10:30N 30°04' W 093°22'0 0.0
2018-Jun-20 10:00N 30°04' W 093°22'0 0.0
2018-Jun-20 09:29N 30°04' W 093°22'0 0.0
2018-Jun-20 09:00N 30°04' W 093°22'0 0.0
2018-Jun-20 08:30N 30°04' W 093°22'0 0.0
2018-Jun-20 08:00N 30°04' W 093°22'0 0.0
2018-Jun-20 07:30N 30°04' W 093°22'0 0.0
2018-Jun-20 07:00N 30°04' W 093°22'0 0.0
2018-Jun-20 06:30N 30°04' W 093°22'0 0.0
2018-Jun-20 06:00N 30°04' W 093°22'0 0.0
2018-Jun-20 05:30N 30°04' W 093°22'0 0.0
2018-Jun-20 05:00N 30°04' W 093°22'0 0.0
2018-Jun-20 04:29N 30°04' W 093°22'0 0.0
2018-Jun-20 04:00N 30°04' W 093°22'0 0.0
2018-Jun-20 03:30N 30°04' W 093°22'0 0.0
2018-Jun-20 03:00N 30°04' W 093°22'0 0.0
2018-Jun-20 02:30N 30°04' W 093°22'0 0.0
2018-Jun-20 02:00N 30°04' W 093°22'0 0.0
2018-Jun-20 01:30N 30°04' W 093°22'0 0.0
2018-Jun-20 01:00N 30°04' W 093°22'0 0.0
2018-Jun-20 00:30N 30°04' W 093°22'0 0.1
2018-Jun-20 00:00N 30°04' W 093°22'3 5.1
2018-Jun-19 23:30N 30°04' W 093°25'3 6.2
2018-Jun-19 23:00N 30°04' W 093°28'3 6.3
2018-Jun-19 22:30N 30°04' W 093°32'3 6.3
2018-Jun-19 22:00N 30°04' W 093°36'3 6.7
2018-Jun-19 21:30N 30°04' W 093°39'3 6.8
2018-Jun-19 21:00N 30°03' W 093°43'3 7.0
2018-Jun-19 20:30N 30°00' W 093°46'4 7.2
2018-Jun-19 20:00N 29°59' W 093°50'2 4.5
2018-Jun-19 19:30N 29°59' W 093°52'2 4.4
2018-Jun-19 19:00N 29°59' W 093°55'2 4.2
2018-Jun-19 18:30N 29°60' W 093°57'0 0.1
2018-Jun-19 18:00N 29°60' W 093°57'0 0.0
2018-Jun-19 17:30N 29°60' W 093°57'1 2.9
2018-Jun-19 17:00N 30°01' W 093°58'1 1.6
2018-Jun-19 16:30N 30°01' W 093°59'0 0.2
2018-Jun-19 16:00N 30°01' W 093°59'0 0.0
2018-Jun-19 15:30N 30°01' W 093°59'0 0.0
2018-Jun-19 15:00N 30°01' W 093°59'0 0.0
2018-Jun-19 14:30N 30°01' W 093°59'0 0.0
2018-Jun-19 14:00N 30°01' W 093°59'0 0.0
2018-Jun-19 13:30N 30°01' W 093°59'0 0.0
2018-Jun-19 13:00N 30°01' W 093°59'0 0.0
2018-Jun-19 12:30N 30°01' W 093°59'0 0.0
2018-Jun-19 12:00N 30°01' W 093°59'0 0.0
2018-Jun-19 11:30N 30°01' W 093°59'0 0.0
2018-Jun-19 11:00N 30°01' W 093°59'0 0.0
2018-Jun-19 10:30N 30°01' W 093°59'0 0.0
2018-Jun-19 10:00N 30°01' W 093°59'0 0.0
2018-Jun-19 09:30N 30°01' W 093°59'0 0.0
2018-Jun-19 09:00N 30°01' W 093°59'0 0.0
2018-Jun-19 08:30N 30°01' W 093°59'0 0.0
2018-Jun-19 08:00N 30°01' W 093°59'0 0.0
2018-Jun-19 07:30N 30°01' W 093°59'0 0.0
2018-Jun-19 07:00N 30°01' W 093°59'0 0.0
2018-Jun-19 06:30N 30°01' W 093°59'0 0.0
2018-Jun-19 06:00N 30°01' W 093°59'0 0.0
2018-Jun-19 05:30N 30°01' W 093°59'0 0.0
2018-Jun-19 05:00N 30°01' W 093°59'0 0.0
2018-Jun-19 04:30N 30°01' W 093°59'0 0.0
2018-Jun-19 04:00N 30°01' W 093°59'0 0.0
2018-Jun-19 03:30N 30°01' W 093°59'0 0.0
2018-Jun-19 03:00N 30°01' W 093°59'0 0.0
2018-Jun-19 02:30N 30°01' W 093°59'0 0.0
2018-Jun-19 02:00N 30°01' W 093°59'0 0.0
2018-Jun-19 01:30N 30°01' W 093°59'0 0.0
2018-Jun-19 01:00N 30°01' W 093°59'0 0.0
2018-Jun-19 00:30N 30°01' W 093°59'0 0.0
2018-Jun-19 00:00N 30°01' W 093°59'0 0.0
2018-Jun-18 23:30N 30°01' W 093°59'0 0.0
2018-Jun-18 23:00N 30°01' W 093°59'0 0.0
2018-Jun-18 22:30N 30°01' W 093°59'0 0.0
2018-Jun-18 22:00N 30°01' W 093°59'0 0.0
2018-Jun-18 21:30N 30°01' W 093°59'0 0.0
2018-Jun-18 21:00N 30°01' W 093°59'0 0.0
2018-Jun-18 20:30N 30°01' W 093°59'0 0.0
2018-Jun-18 20:00N 30°01' W 093°59'0 0.0
2018-Jun-18 19:30N 30°01' W 093°59'0 0.1
2018-Jun-18 19:00N 30°01' W 093°59'1 1.4
2018-Jun-18 18:30N 30°01' W 093°59'0 0.2
2018-Jun-18 18:00N 30°01' W 093°59'0 0.0
2018-Jun-18 17:30N 30°01' W 093°59'0 0.0
2018-Jun-18 17:00N 30°01' W 093°59'0 0.0
2018-Jun-18 16:30N 30°01' W 093°59'0 0.0
2018-Jun-18 16:00N 30°01' W 093°59'0 0.0
2018-Jun-18 15:30N 30°01' W 093°59'0 0.0
2018-Jun-18 15:00N 30°01' W 093°59'0 0.0
2018-Jun-18 14:30N 30°01' W 093°59'0 0.0
2018-Jun-18 14:00N 30°01' W 093°59'0 0.0
2018-Jun-18 13:30N 30°01' W 093°59'0 0.0
2018-Jun-18 13:00N 30°01' W 093°59'0 0.0
2018-Jun-18 12:30N 30°01' W 093°59'0 0.0
2018-Jun-18 12:00N 30°01' W 093°59'0 0.0
2018-Jun-18 11:30N 30°01' W 093°59'0 0.0
2018-Jun-18 11:00N 30°01' W 093°59'0 0.0
2018-Jun-18 10:30N 30°01' W 093°59'0 0.0
2018-Jun-18 10:00N 30°01' W 093°59'0 0.0
2018-Jun-18 09:30N 30°01' W 093°59'0 0.0
2018-Jun-18 09:00N 30°01' W 093°59'0 0.0
2018-Jun-18 08:30N 30°01' W 093°59'0 0.0
2018-Jun-18 08:00N 30°01' W 093°59'0 0.0
2018-Jun-18 07:30N 30°01' W 093°59'0 0.0
2018-Jun-18 07:00N 30°01' W 093°59'0 0.0
2018-Jun-18 06:30N 30°01' W 093°59'0 0.0
2018-Jun-18 06:00N 30°01' W 093°59'0 0.0
2018-Jun-18 05:30N 30°01' W 093°59'0 0.0
2018-Jun-18 05:00N 30°01' W 093°59'0 0.0
2018-Jun-18 04:30N 30°01' W 093°59'0 0.0
2018-Jun-18 04:00N 30°01' W 093°59'0 0.0
2018-Jun-18 03:30N 30°01' W 093°59'0 0.0
2018-Jun-18 03:00N 30°01' W 093°59'0 0.0
2018-Jun-18 02:30N 30°01' W 093°59'0 0.0
2018-Jun-18 02:00N 30°01' W 093°59'0 0.0
2018-Jun-18 01:30N 30°01' W 093°59'0 0.0
2018-Jun-18 01:00N 30°01' W 093°59'0 0.0
2018-Jun-18 00:30N 30°01' W 093°59'0 0.0
2018-Jun-18 00:00N 30°01' W 093°59'0 0.0
2018-Jun-17 23:30N 30°01' W 093°59'0 0.0
2018-Jun-17 23:00N 30°01' W 093°59'0 0.0
2018-Jun-17 22:30N 30°01' W 093°59'0 0.0
2018-Jun-17 22:00N 30°01' W 093°59'0 0.0
2018-Jun-17 21:30N 30°01' W 093°59'0 0.0
2018-Jun-17 21:00N 30°01' W 093°59'0 0.0
2018-Jun-17 20:30N 30°01' W 093°59'0 0.0
2018-Jun-17 20:00N 30°01' W 093°59'0 0.0
2018-Jun-17 19:30N 30°01' W 093°59'0 0.0
2018-Jun-17 19:00N 30°01' W 093°59'0 0.0
2018-Jun-17 18:30N 30°01' W 093°59'0 0.0
2018-Jun-17 18:00N 30°01' W 093°59'0 0.0
2018-Jun-17 17:30N 30°01' W 093°59'0 0.0
2018-Jun-17 17:00N 30°01' W 093°59'0 0.7
2018-Jun-17 16:30N 30°01' W 093°59'0 0.0
2018-Jun-17 16:00N 30°01' W 093°59'0 0.0
2018-Jun-17 15:30N 30°01' W 093°59'0 0.0
2018-Jun-17 15:01N 30°01' W 093°59'0 0.0
2018-Jun-17 14:30N 30°01' W 093°59'0 0.0
2018-Jun-17 14:00N 30°01' W 093°59'0 0.0
2018-Jun-17 13:30N 30°01' W 093°59'0 0.0
2018-Jun-17 13:00N 30°01' W 093°59'0 0.0
2018-Jun-17 12:30N 30°01' W 093°59'0 0.0
2018-Jun-17 12:00N 30°01' W 093°59'0 0.0
2018-Jun-17 11:30N 30°01' W 093°59'0 0.0
2018-Jun-17 11:00N 30°01' W 093°59'0 0.0
2018-Jun-17 10:30N 30°01' W 093°59'0 0.0
2018-Jun-17 10:00N 30°01' W 093°59'0 0.0
2018-Jun-17 09:30N 30°01' W 093°59'0 0.0
2018-Jun-17 09:00N 30°01' W 093°59'0 0.0
2018-Jun-17 08:29N 30°01' W 093°59'0 0.0
2018-Jun-17 08:00N 30°01' W 093°59'0 0.7
2018-Jun-17 07:30N 30°01' W 093°59'0 0.3
2018-Jun-17 07:00N 30°01' W 093°59'1 3.0
2018-Jun-17 06:30N 30°01' W 093°57'3 6.8
2018-Jun-17 06:00N 29°59' W 093°54'3 5.7
2018-Jun-17 05:30N 29°58' W 093°51'4 7.7
2018-Jun-17 05:00N 29°60' W 093°47'3 6.7
2018-Jun-17 04:30N 30°02' W 093°44'3 5.2
2018-Jun-17 03:52N 30°04' W 093°41'2 6.4
2018-Jun-17 03:30N 30°04' W 093°38'4 7.2
2018-Jun-17 03:00N 30°04' W 093°34'4 7.0
2018-Jun-17 02:30N 30°04' W 093°30'4 7.3
2018-Jun-17 02:00N 30°04' W 093°25'3 5.4
2018-Jun-17 01:29N 30°04' W 093°22'3 5.7
2018-Jun-17 01:00N 30°05' W 093°20'3 6.0
2018-Jun-17 00:30N 30°08' W 093°19'0 0.1
2018-Jun-17 00:00N 30°08' W 093°19'0 0.0
2018-Jun-16 23:30N 30°08' W 093°19'0 0.0
2018-Jun-16 23:00N 30°08' W 093°19'0 0.0
2018-Jun-16 22:30N 30°08' W 093°19'0 0.0
2018-Jun-16 22:00N 30°08' W 093°19'0 0.0
2018-Jun-16 21:30N 30°08' W 093°19'0 0.0
2018-Jun-16 20:58N 30°08' W 093°19'0 0.0
2018-Jun-16 20:29N 30°08' W 093°19'0 0.0
2018-Jun-16 20:00N 30°08' W 093°19'0 0.0
2018-Jun-16 19:30N 30°08' W 093°19'0 0.0
2018-Jun-16 19:00N 30°08' W 093°19'0 0.0
2018-Jun-16 18:30N 30°08' W 093°19'0 0.0
2018-Jun-16 18:00N 30°08' W 093°19'0 0.0
2018-Jun-16 17:30N 30°08' W 093°19'0 0.0
2018-Jun-16 17:00N 30°08' W 093°19'0 0.0
2018-Jun-16 16:30N 30°08' W 093°19'0 0.0
2018-Jun-16 16:00N 30°08' W 093°19'0 0.0
2018-Jun-16 15:30N 30°08' W 093°19'0 0.0
2018-Jun-16 15:00N 30°08' W 093°19'0 0.0
2018-Jun-16 14:30N 30°08' W 093°19'0 0.0
2018-Jun-16 14:00N 30°08' W 093°19'0 0.0
2018-Jun-16 13:30N 30°08' W 093°19'0 0.0
2018-Jun-16 13:00N 30°08' W 093°19'0 0.0
2018-Jun-16 12:29N 30°08' W 093°19'0 0.0
2018-Jun-16 12:00N 30°08' W 093°19'0 0.0
2018-Jun-16 11:30N 30°08' W 093°19'1 1.6
2018-Jun-16 11:00N 30°08' W 093°20'1 1.4
2018-Jun-16 10:30N 30°07' W 093°20'1 3.0
2018-Jun-16 10:00N 30°06' W 093°19'1 2.3
2018-Jun-16 09:30N 30°05' W 093°18'1 1.9
2018-Jun-16 09:00N 30°05' W 093°17'1 1.4
2018-Jun-16 08:30N 30°04' W 093°16'0 0.0
2018-Jun-16 08:00N 30°04' W 093°16'0 0.0
2018-Jun-16 07:28N 30°04' W 093°16'0 0.0
2018-Jun-16 07:00N 30°04' W 093°16'0 0.0
2018-Jun-16 06:30N 30°04' W 093°16'0 0.0
2018-Jun-16 06:00N 30°04' W 093°16'0 0.0
2018-Jun-16 05:30N 30°04' W 093°16'0 0.0
2018-Jun-16 05:00N 30°04' W 093°16'0 0.0
2018-Jun-16 04:30N 30°04' W 093°16'0 0.0
2018-Jun-16 04:00N 30°04' W 093°16'0 0.4
2018-Jun-16 03:30N 30°04' W 093°16'1 1.1
2018-Jun-16 03:00N 30°04' W 093°16'1 1.1
2018-Jun-16 02:30N 30°03' W 093°16'0 0.0
2018-Jun-16 02:00N 30°03' W 093°16'0 0.1
2018-Jun-16 01:30N 30°03' W 093°16'1 1.6
2018-Jun-16 01:00N 30°02' W 093°16'1 1.1
2018-Jun-16 00:30N 30°02' W 093°15'1 2.1
2018-Jun-16 00:00N 30°01' W 093°14'2 3.6
2018-Jun-15 23:30N 29°60' W 093°13'1 2.0
2018-Jun-15 23:00N 29°59' W 093°12'2 3.6
2018-Jun-15 22:30N 29°58' W 093°11'0 0.3
2018-Jun-15 22:00N 29°58' W 093°11'0 0.0
2018-Jun-15 21:30N 29°58' W 093°11'0 0.0
2018-Jun-15 21:00N 29°58' W 093°11'0 0.0
2018-Jun-15 20:30N 29°58' W 093°11'0 0.0
2018-Jun-15 20:00N 29°58' W 093°11'0 0.0
2018-Jun-15 19:30N 29°58' W 093°11'0 0.0
2018-Jun-15 19:00N 29°58' W 093°11'0 0.0
2018-Jun-15 18:30N 29°58' W 093°11'0 0.0
2018-Jun-15 18:00N 29°58' W 093°11'0 0.0
2018-Jun-15 17:30N 29°58' W 093°11'0 0.0
2018-Jun-15 17:00N 29°58' W 093°11'0 0.0
2018-Jun-15 16:30N 29°58' W 093°11'0 0.0
2018-Jun-15 16:00N 29°58' W 093°11'0 0.0
2018-Jun-15 15:30N 29°58' W 093°11'1 2.1
2018-Jun-15 15:00N 29°57' W 093°10'0 0.0
2018-Jun-15 14:30N 29°57' W 093°10'0 0.0
2018-Jun-15 13:58N 29°57' W 093°10'0 0.0
2018-Jun-15 13:30N 29°57' W 093°10'0 0.0
2018-Jun-15 13:00N 29°57' W 093°10'0 0.0
2018-Jun-15 12:30N 29°57' W 093°10'0 0.0
2018-Jun-15 12:00N 29°57' W 093°10'0 0.0
2018-Jun-15 11:30N 29°57' W 093°10'0 0.0
2018-Jun-15 11:00N 29°57' W 093°10'0 0.0
2018-Jun-15 10:30N 29°57' W 093°10'0 0.0
2018-Jun-15 10:00N 29°57' W 093°10'0 0.0
2018-Jun-15 09:30N 29°57' W 093°10'0 0.0
2018-Jun-15 09:00N 29°57' W 093°10'0 0.0
2018-Jun-15 08:30N 29°57' W 093°10'0 0.0
2018-Jun-15 08:00N 29°57' W 093°10'0 0.0
2018-Jun-15 07:30N 29°57' W 093°10'0 0.0
2018-Jun-15 07:00N 29°57' W 093°10'0 0.0
2018-Jun-15 06:30N 29°57' W 093°10'0 0.0
2018-Jun-15 06:00N 29°57' W 093°10'0 0.0
2018-Jun-15 05:30N 29°57' W 093°10'0 0.0
2018-Jun-15 04:58N 29°57' W 093°10'0 0.0
2018-Jun-15 04:30N 29°57' W 093°10'0 0.1
2018-Jun-15 04:00N 29°57' W 093°10'0 0.1
2018-Jun-15 03:30N 29°57' W 093°10'0 0.1
2018-Jun-15 03:00N 29°57' W 093°10'0 0.0
2018-Jun-15 02:30N 29°57' W 093°10'  

Dump ship's entire track history